sensor_id;sensor_type;location;lat;lon;timestamp;P1;durP1;ratioP1;P2;durP2;ratioP2
35893;SDS011;21994;48.204;16.516;2022-07-29T00:00:58;3.90;;;2.08;;
35893;SDS011;21994;48.204;16.516;2022-07-29T00:03:25;3.42;;;1.65;;
35893;SDS011;21994;48.204;16.516;2022-07-29T00:05:50;3.13;;;1.98;;
35893;SDS011;21994;48.204;16.516;2022-07-29T00:08:18;2.85;;;1.48;;
35893;SDS011;21994;48.204;16.516;2022-07-29T00:10:45;3.15;;;1.95;;
35893;SDS011;21994;48.204;16.516;2022-07-29T00:13:11;2.58;;;1.50;;
35893;SDS011;21994;48.204;16.516;2022-07-29T00:15:37;3.25;;;1.85;;
35893;SDS011;21994;48.204;16.516;2022-07-29T00:18:03;4.75;;;1.40;;
35893;SDS011;21994;48.204;16.516;2022-07-29T00:20:29;2.42;;;1.92;;
35893;SDS011;21994;48.204;16.516;2022-07-29T00:22:55;3.53;;;2.00;;
35893;SDS011;21994;48.204;16.516;2022-07-29T00:25:20;1.77;;;1.27;;
35893;SDS011;21994;48.204;16.516;2022-07-29T00:27:46;3.17;;;1.52;;
35893;SDS011;21994;48.204;16.516;2022-07-29T00:30:12;2.47;;;1.55;;
35893;SDS011;21994;48.204;16.516;2022-07-29T00:32:38;3.47;;;1.52;;
35893;SDS011;21994;48.204;16.516;2022-07-29T00:35:04;4.40;;;1.45;;
35893;SDS011;21994;48.204;16.516;2022-07-29T00:37:49;2.88;;;1.27;;
35893;SDS011;21994;48.204;16.516;2022-07-29T00:40:16;2.67;;;1.90;;
35893;SDS011;21994;48.204;16.516;2022-07-29T00:42:43;3.13;;;1.30;;
35893;SDS011;21994;48.204;16.516;2022-07-29T00:45:11;2.78;;;1.70;;
35893;SDS011;21994;48.204;16.516;2022-07-29T00:47:38;2.15;;;1.25;;
35893;SDS011;21994;48.204;16.516;2022-07-29T00:50:05;2.70;;;1.70;;
35893;SDS011;21994;48.204;16.516;2022-07-29T00:52:37;1.85;;;1.38;;
35893;SDS011;21994;48.204;16.516;2022-07-29T00:55:06;3.90;;;1.65;;
35893;SDS011;21994;48.204;16.516;2022-07-29T00:57:35;4.47;;;1.40;;
35893;SDS011;21994;48.204;16.516;2022-07-29T01:00:05;3.22;;;1.77;;
35893;SDS011;21994;48.204;16.516;2022-07-29T01:02:34;4.28;;;1.27;;
35893;SDS011;21994;48.204;16.516;2022-07-29T01:05:01;3.53;;;1.90;;
35893;SDS011;21994;48.204;16.516;2022-07-29T01:07:29;2.78;;;1.40;;
35893;SDS011;21994;48.204;16.516;2022-07-29T01:09:57;3.13;;;1.92;;
35893;SDS011;21994;48.204;16.516;2022-07-29T01:12:25;4.78;;;1.58;;
35893;SDS011;21994;48.204;16.516;2022-07-29T01:14:54;2.65;;;1.45;;
35893;SDS011;21994;48.204;16.516;2022-07-29T01:17:24;3.67;;;1.98;;
35893;SDS011;21994;48.204;16.516;2022-07-29T01:19:58;3.60;;;1.85;;
35893;SDS011;21994;48.204;16.516;2022-07-29T01:31:26;3.08;;;1.80;;
35893;SDS011;21994;48.204;16.516;2022-07-29T01:34:05;2.30;;;1.58;;
35893;SDS011;21994;48.204;16.516;2022-07-29T01:36:55;4.22;;;1.85;;
35893;SDS011;21994;48.204;16.516;2022-07-29T01:39:31;3.55;;;2.10;;
35893;SDS011;21994;48.204;16.516;2022-07-29T01:42:12;5.40;;;2.03;;
35893;SDS011;21994;48.204;16.516;2022-07-29T01:50:26;3.63;;;1.50;;
35893;SDS011;21994;48.204;16.516;2022-07-29T01:53:14;3.00;;;1.95;;
35893;SDS011;21994;48.204;16.516;2022-07-29T01:55:55;2.63;;;1.50;;
35893;SDS011;21994;48.204;16.516;2022-07-29T01:58:24;2.17;;;1.65;;
35893;SDS011;21994;48.204;16.516;2022-07-29T02:00:52;7.85;;;1.98;;
35893;SDS011;21994;48.204;16.516;2022-07-29T02:03:21;3.22;;;1.70;;
35893;SDS011;21994;48.204;16.516;2022-07-29T02:05:48;5.35;;;2.13;;
35893;SDS011;21994;48.204;16.516;2022-07-29T02:08:16;5.57;;;1.50;;
35893;SDS011;21994;48.204;16.516;2022-07-29T02:10:45;2.63;;;1.63;;
35893;SDS011;21994;48.204;16.516;2022-07-29T02:13:12;3.33;;;1.83;;
35893;SDS011;21994;48.204;16.516;2022-07-29T02:15:41;2.95;;;1.58;;
35893;SDS011;21994;48.204;16.516;2022-07-29T02:18:11;4.00;;;1.90;;
35893;SDS011;21994;48.204;16.516;2022-07-29T02:20:47;3.22;;;1.95;;
35893;SDS011;21994;48.204;16.516;2022-07-29T02:23:20;3.40;;;1.80;;
35893;SDS011;21994;48.204;16.516;2022-07-29T02:25:52;2.42;;;1.30;;
35893;SDS011;21994;48.204;16.516;2022-07-29T02:28:21;4.13;;;1.88;;
35893;SDS011;21994;48.204;16.516;2022-07-29T02:30:49;4.05;;;2.00;;
35893;SDS011;21994;48.204;16.516;2022-07-29T02:33:18;2.80;;;1.90;;
35893;SDS011;21994;48.204;16.516;2022-07-29T02:35:46;2.97;;;1.70;;
35893;SDS011;21994;48.204;16.516;2022-07-29T02:38:16;2.80;;;2.25;;
35893;SDS011;21994;48.204;16.516;2022-07-29T02:41:08;3.55;;;1.60;;
35893;SDS011;21994;48.204;16.516;2022-07-29T02:43:39;4.00;;;1.55;;
35893;SDS011;21994;48.204;16.516;2022-07-29T02:46:08;3.17;;;1.63;;
35893;SDS011;21994;48.204;16.516;2022-07-29T02:48:55;4.53;;;2.08;;
35893;SDS011;21994;48.204;16.516;2022-07-29T02:51:33;4.20;;;1.65;;
35893;SDS011;21994;48.204;16.516;2022-07-29T02:54:08;2.83;;;1.77;;
35893;SDS011;21994;48.204;16.516;2022-07-29T02:56:47;2.85;;;1.52;;
35893;SDS011;21994;48.204;16.516;2022-07-29T02:59:14;3.60;;;1.83;;
35893;SDS011;21994;48.204;16.516;2022-07-29T03:01:47;3.88;;;1.98;;
35893;SDS011;21994;48.204;16.516;2022-07-29T03:04:14;4.97;;;2.20;;
35893;SDS011;21994;48.204;16.516;2022-07-29T03:06:42;5.15;;;2.15;;
35893;SDS011;21994;48.204;16.516;2022-07-29T03:09:10;3.55;;;1.63;;
35893;SDS011;21994;48.204;16.516;2022-07-29T03:11:37;3.75;;;1.85;;
35893;SDS011;21994;48.204;16.516;2022-07-29T03:14:05;3.95;;;1.90;;
35893;SDS011;21994;48.204;16.516;2022-07-29T03:16:31;4.47;;;2.38;;
35893;SDS011;21994;48.204;16.516;2022-07-29T03:19:01;2.95;;;1.65;;
35893;SDS011;21994;48.204;16.516;2022-07-29T03:21:28;3.25;;;1.50;;
35893;SDS011;21994;48.204;16.516;2022-07-29T03:23:55;4.20;;;1.88;;
35893;SDS011;21994;48.204;16.516;2022-07-29T03:26:21;2.65;;;1.80;;
35893;SDS011;21994;48.204;16.516;2022-07-29T03:28:47;4.05;;;1.98;;
35893;SDS011;21994;48.204;16.516;2022-07-29T03:31:13;4.03;;;2.35;;
35893;SDS011;21994;48.204;16.516;2022-07-29T03:33:39;4.78;;;2.20;;
35893;SDS011;21994;48.204;16.516;2022-07-29T03:36:05;4.85;;;1.92;;
35893;SDS011;21994;48.204;16.516;2022-07-29T03:38:31;2.65;;;1.98;;
35893;SDS011;21994;48.204;16.516;2022-07-29T03:41:01;4.22;;;1.92;;
35893;SDS011;21994;48.204;16.516;2022-07-29T03:43:34;5.22;;;2.10;;
35893;SDS011;21994;48.204;16.516;2022-07-29T03:46:04;4.35;;;1.67;;
35893;SDS011;21994;48.204;16.516;2022-07-29T03:48:33;3.72;;;1.83;;
35893;SDS011;21994;48.204;16.516;2022-07-29T03:51:02;3.17;;;1.98;;
35893;SDS011;21994;48.204;16.516;2022-07-29T03:53:28;4.20;;;2.10;;
35893;SDS011;21994;48.204;16.516;2022-07-29T03:55:55;3.90;;;1.95;;
35893;SDS011;21994;48.204;16.516;2022-07-29T03:58:26;5.63;;;2.28;;
35893;SDS011;21994;48.204;16.516;2022-07-29T04:00:53;5.85;;;2.13;;
35893;SDS011;21994;48.204;16.516;2022-07-29T04:03:20;4.40;;;1.83;;
35893;SDS011;21994;48.204;16.516;2022-07-29T04:05:57;5.40;;;2.17;;
35893;SDS011;21994;48.204;16.516;2022-07-29T04:08:27;4.75;;;2.17;;
35893;SDS011;21994;48.204;16.516;2022-07-29T04:10:53;3.72;;;1.88;;
35893;SDS011;21994;48.204;16.516;2022-07-29T04:13:20;2.58;;;1.63;;
35893;SDS011;21994;48.204;16.516;2022-07-29T04:15:46;5.70;;;2.13;;
35893;SDS011;21994;48.204;16.516;2022-07-29T04:18:12;2.90;;;1.77;;
35893;SDS011;21994;48.204;16.516;2022-07-29T04:20:38;3.50;;;1.80;;
35893;SDS011;21994;48.204;16.516;2022-07-29T04:23:03;2.45;;;1.55;;
35893;SDS011;21994;48.204;16.516;2022-07-29T04:25:29;7.45;;;2.10;;
35893;SDS011;21994;48.204;16.516;2022-07-29T04:27:55;5.20;;;2.03;;
35893;SDS011;21994;48.204;16.516;2022-07-29T04:30:27;4.43;;;2.30;;
35893;SDS011;21994;48.204;16.516;2022-07-29T04:32:56;4.43;;;2.50;;
35893;SDS011;21994;48.204;16.516;2022-07-29T04:35:22;4.90;;;2.33;;
35893;SDS011;21994;48.204;16.516;2022-07-29T04:37:48;3.08;;;2.05;;
35893;SDS011;21994;48.204;16.516;2022-07-29T04:40:14;4.05;;;2.63;;
35893;SDS011;21994;48.204;16.516;2022-07-29T04:42:40;4.72;;;2.40;;
35893;SDS011;21994;48.204;16.516;2022-07-29T04:45:06;6.35;;;3.05;;
35893;SDS011;21994;48.204;16.516;2022-07-29T04:47:32;6.35;;;2.42;;
35893;SDS011;21994;48.204;16.516;2022-07-29T04:49:58;3.83;;;2.47;;
35893;SDS011;21994;48.204;16.516;2022-07-29T04:52:24;3.97;;;2.17;;
35893;SDS011;21994;48.204;16.516;2022-07-29T04:54:50;4.38;;;1.90;;
35893;SDS011;21994;48.204;16.516;2022-07-29T04:57:16;4.60;;;2.50;;
35893;SDS011;21994;48.204;16.516;2022-07-29T04:59:42;4.22;;;2.28;;
35893;SDS011;21994;48.204;16.516;2022-07-29T05:02:09;3.78;;;2.03;;
35893;SDS011;21994;48.204;16.516;2022-07-29T05:04:34;4.30;;;2.28;;
35893;SDS011;21994;48.204;16.516;2022-07-29T05:07:00;4.13;;;2.25;;
35893;SDS011;21994;48.204;16.516;2022-07-29T05:09:26;4.18;;;2.13;;
35893;SDS011;21994;48.204;16.516;2022-07-29T05:11:52;4.70;;;2.30;;
35893;SDS011;21994;48.204;16.516;2022-07-29T05:14:18;3.35;;;1.95;;
35893;SDS011;21994;48.204;16.516;2022-07-29T05:16:45;4.45;;;1.95;;
35893;SDS011;21994;48.204;16.516;2022-07-29T05:19:10;4.13;;;1.88;;
35893;SDS011;21994;48.204;16.516;2022-07-29T05:21:36;2.83;;;1.70;;
35893;SDS011;21994;48.204;16.516;2022-07-29T05:24:02;3.67;;;1.98;;
35893;SDS011;21994;48.204;16.516;2022-07-29T05:26:29;5.50;;;2.47;;
35893;SDS011;21994;48.204;16.516;2022-07-29T05:28:55;4.03;;;1.85;;
35893;SDS011;21994;48.204;16.516;2022-07-29T05:31:22;3.65;;;2.03;;
35893;SDS011;21994;48.204;16.516;2022-07-29T05:33:47;4.22;;;2.20;;
35893;SDS011;21994;48.204;16.516;2022-07-29T05:36:13;3.03;;;1.73;;
35893;SDS011;21994;48.204;16.516;2022-07-29T05:38:39;5.25;;;2.60;;
35893;SDS011;21994;48.204;16.516;2022-07-29T05:41:05;2.28;;;1.92;;
35893;SDS011;21994;48.204;16.516;2022-07-29T05:43:32;3.60;;;1.90;;
35893;SDS011;21994;48.204;16.516;2022-07-29T05:45:58;4.03;;;3.03;;
35893;SDS011;21994;48.204;16.516;2022-07-29T05:48:24;3.72;;;2.25;;
35893;SDS011;21994;48.204;16.516;2022-07-29T05:50:50;4.90;;;2.20;;
35893;SDS011;21994;48.204;16.516;2022-07-29T05:53:17;4.38;;;2.17;;
35893;SDS011;21994;48.204;16.516;2022-07-29T05:55:42;3.42;;;2.47;;
35893;SDS011;21994;48.204;16.516;2022-07-29T05:58:08;5.85;;;2.85;;
35893;SDS011;21994;48.204;16.516;2022-07-29T06:00:34;2.88;;;1.80;;
35893;SDS011;21994;48.204;16.516;2022-07-29T06:03:00;2.60;;;1.95;;
35893;SDS011;21994;48.204;16.516;2022-07-29T06:05:26;2.83;;;1.75;;
35893;SDS011;21994;48.204;16.516;2022-07-29T06:07:52;3.50;;;2.20;;
35893;SDS011;21994;48.204;16.516;2022-07-29T06:10:18;4.90;;;2.70;;
35893;SDS011;21994;48.204;16.516;2022-07-29T06:12:44;3.13;;;1.70;;
35893;SDS011;21994;48.204;16.516;2022-07-29T06:15:10;2.05;;;1.52;;
35893;SDS011;21994;48.204;16.516;2022-07-29T06:17:36;2.50;;;1.92;;
35893;SDS011;21994;48.204;16.516;2022-07-29T06:20:02;5.50;;;1.70;;
35893;SDS011;21994;48.204;16.516;2022-07-29T06:22:29;3.58;;;1.65;;
35893;SDS011;21994;48.204;16.516;2022-07-29T06:24:55;3.50;;;1.73;;
35893;SDS011;21994;48.204;16.516;2022-07-29T06:27:21;2.40;;;1.77;;
35893;SDS011;21994;48.204;16.516;2022-07-29T06:29:47;5.85;;;1.58;;
35893;SDS011;21994;48.204;16.516;2022-07-29T06:32:13;3.47;;;2.00;;
35893;SDS011;21994;48.204;16.516;2022-07-29T06:34:39;4.18;;;2.20;;
35893;SDS011;21994;48.204;16.516;2022-07-29T06:37:08;3.45;;;2.25;;
35893;SDS011;21994;48.204;16.516;2022-07-29T06:39:35;3.17;;;2.17;;
35893;SDS011;21994;48.204;16.516;2022-07-29T06:42:01;2.67;;;1.70;;
35893;SDS011;21994;48.204;16.516;2022-07-29T06:44:31;4.93;;;2.25;;
35893;SDS011;21994;48.204;16.516;2022-07-29T06:46:59;2.25;;;1.60;;
35893;SDS011;21994;48.204;16.516;2022-07-29T06:49:25;3.30;;;2.40;;
35893;SDS011;21994;48.204;16.516;2022-07-29T06:51:52;3.70;;;1.70;;
35893;SDS011;21994;48.204;16.516;2022-07-29T06:54:19;2.38;;;1.83;;
35893;SDS011;21994;48.204;16.516;2022-07-29T06:56:47;3.47;;;1.80;;
35893;SDS011;21994;48.204;16.516;2022-07-29T06:59:13;4.95;;;2.03;;
35893;SDS011;21994;48.204;16.516;2022-07-29T07:01:42;4.07;;;2.17;;
35893;SDS011;21994;48.204;16.516;2022-07-29T07:04:08;3.50;;;1.73;;
35893;SDS011;21994;48.204;16.516;2022-07-29T07:06:35;2.40;;;1.67;;
35893;SDS011;21994;48.204;16.516;2022-07-29T07:09:01;2.78;;;1.60;;
35893;SDS011;21994;48.204;16.516;2022-07-29T07:11:27;2.45;;;1.58;;
35893;SDS011;21994;48.204;16.516;2022-07-29T07:13:54;3.03;;;1.73;;
35893;SDS011;21994;48.204;16.516;2022-07-29T07:16:20;4.40;;;1.55;;
35893;SDS011;21994;48.204;16.516;2022-07-29T07:18:45;2.13;;;1.42;;
35893;SDS011;21994;48.204;16.516;2022-07-29T07:21:11;2.13;;;1.65;;
35893;SDS011;21994;48.204;16.516;2022-07-29T07:23:37;3.33;;;2.22;;
35893;SDS011;21994;48.204;16.516;2022-07-29T07:26:03;3.10;;;1.75;;
35893;SDS011;21994;48.204;16.516;2022-07-29T07:28:31;3.70;;;1.70;;
35893;SDS011;21994;48.204;16.516;2022-07-29T07:30:57;2.55;;;1.88;;
35893;SDS011;21994;48.204;16.516;2022-07-29T07:33:22;2.42;;;1.50;;
35893;SDS011;21994;48.204;16.516;2022-07-29T07:35:49;2.95;;;1.73;;
35893;SDS011;21994;48.204;16.516;2022-07-29T07:38:15;2.70;;;1.60;;
35893;SDS011;21994;48.204;16.516;2022-07-29T07:40:41;3.38;;;1.98;;
35893;SDS011;21994;48.204;16.516;2022-07-29T07:43:07;3.03;;;2.00;;
35893;SDS011;21994;48.204;16.516;2022-07-29T07:45:33;3.08;;;1.80;;
35893;SDS011;21994;48.204;16.516;2022-07-29T07:48:01;3.55;;;1.70;;
35893;SDS011;21994;48.204;16.516;2022-07-29T07:50:28;3.17;;;1.60;;
35893;SDS011;21994;48.204;16.516;2022-07-29T07:52:55;3.75;;;1.83;;
35893;SDS011;21994;48.204;16.516;2022-07-29T07:55:24;2.63;;;1.85;;
35893;SDS011;21994;48.204;16.516;2022-07-29T07:57:51;4.60;;;1.95;;
35893;SDS011;21994;48.204;16.516;2022-07-29T08:00:21;3.58;;;2.08;;
35893;SDS011;21994;48.204;16.516;2022-07-29T08:02:47;2.67;;;1.98;;
35893;SDS011;21994;48.204;16.516;2022-07-29T08:05:13;2.45;;;1.80;;
35893;SDS011;21994;48.204;16.516;2022-07-29T08:07:42;3.35;;;1.98;;
35893;SDS011;21994;48.204;16.516;2022-07-29T08:10:10;3.67;;;1.75;;
35893;SDS011;21994;48.204;16.516;2022-07-29T08:12:36;3.95;;;1.95;;
35893;SDS011;21994;48.204;16.516;2022-07-29T08:15:03;2.58;;;1.38;;
35893;SDS011;21994;48.204;16.516;2022-07-29T08:17:32;4.28;;;1.90;;
35893;SDS011;21994;48.204;16.516;2022-07-29T08:19:58;2.67;;;1.73;;
35893;SDS011;21994;48.204;16.516;2022-07-29T08:22:24;2.80;;;1.70;;
35893;SDS011;21994;48.204;16.516;2022-07-29T08:24:50;2.30;;;1.42;;
35893;SDS011;21994;48.204;16.516;2022-07-29T08:27:20;2.10;;;1.58;;
35893;SDS011;21994;48.204;16.516;2022-07-29T08:29:50;2.90;;;1.38;;
35893;SDS011;21994;48.204;16.516;2022-07-29T08:32:16;3.33;;;1.70;;
35893;SDS011;21994;48.204;16.516;2022-07-29T08:34:42;1.40;;;1.10;;
35893;SDS011;21994;48.204;16.516;2022-07-29T08:37:11;2.42;;;1.50;;
35893;SDS011;21994;48.204;16.516;2022-07-29T08:39:37;2.72;;;1.58;;
35893;SDS011;21994;48.204;16.516;2022-07-29T08:42:03;2.42;;;1.65;;
35893;SDS011;21994;48.204;16.516;2022-07-29T08:44:31;1.67;;;1.25;;
35893;SDS011;21994;48.204;16.516;2022-07-29T08:46:58;2.47;;;1.65;;
35893;SDS011;21994;48.204;16.516;2022-07-29T08:49:23;1.48;;;1.30;;
35893;SDS011;21994;48.204;16.516;2022-07-29T08:51:49;1.98;;;1.77;;
35893;SDS011;21994;48.204;16.516;2022-07-29T08:54:17;1.70;;;1.40;;
35893;SDS011;21994;48.204;16.516;2022-07-29T08:56:44;3.28;;;1.58;;
35893;SDS011;21994;48.204;16.516;2022-07-29T08:59:14;4.10;;;1.90;;
35893;SDS011;21994;48.204;16.516;2022-07-29T09:01:45;2.55;;;1.85;;
35893;SDS011;21994;48.204;16.516;2022-07-29T09:04:13;1.92;;;1.42;;
35893;SDS011;21994;48.204;16.516;2022-07-29T09:06:42;2.30;;;1.80;;
35893;SDS011;21994;48.204;16.516;2022-07-29T09:09:12;2.00;;;1.60;;
35893;SDS011;21994;48.204;16.516;2022-07-29T09:11:39;1.90;;;1.50;;
35893;SDS011;21994;48.204;16.516;2022-07-29T09:14:06;2.20;;;1.30;;
35893;SDS011;21994;48.204;16.516;2022-07-29T09:16:49;2.58;;;1.70;;
35893;SDS011;21994;48.204;16.516;2022-07-29T09:19:22;2.00;;;1.55;;
35893;SDS011;21994;48.204;16.516;2022-07-29T09:21:51;2.35;;;1.58;;
35893;SDS011;21994;48.204;16.516;2022-07-29T09:24:35;2.63;;;1.40;;
35893;SDS011;21994;48.204;16.516;2022-07-29T09:27:11;2.08;;;1.52;;
35893;SDS011;21994;48.204;16.516;2022-07-29T09:29:45;3.22;;;1.70;;
35893;SDS011;21994;48.204;16.516;2022-07-29T09:32:12;1.48;;;1.33;;
35893;SDS011;21994;48.204;16.516;2022-07-29T09:34:38;1.85;;;1.60;;
35893;SDS011;21994;48.204;16.516;2022-07-29T09:37:04;3.75;;;2.08;;
35893;SDS011;21994;48.204;16.516;2022-07-29T09:39:34;2.55;;;1.80;;
35893;SDS011;21994;48.204;16.516;2022-07-29T09:42:09;2.28;;;1.50;;
35893;SDS011;21994;48.204;16.516;2022-07-29T09:44:45;2.22;;;1.75;;
35893;SDS011;21994;48.204;16.516;2022-07-29T09:47:14;4.68;;;1.80;;
35893;SDS011;21994;48.204;16.516;2022-07-29T09:49:53;1.98;;;1.50;;
35893;SDS011;21994;48.204;16.516;2022-07-29T09:52:23;2.92;;;2.10;;
35893;SDS011;21994;48.204;16.516;2022-07-29T09:54:53;1.80;;;1.25;;
35893;SDS011;21994;48.204;16.516;2022-07-29T09:57:33;2.83;;;1.80;;
35893;SDS011;21994;48.204;16.516;2022-07-29T10:00:06;2.15;;;1.50;;
35893;SDS011;21994;48.204;16.516;2022-07-29T10:07:57;2.10;;;1.90;;
35893;SDS011;21994;48.204;16.516;2022-07-29T10:10:30;1.77;;;1.58;;
35893;SDS011;21994;48.204;16.516;2022-07-29T10:13:02;2.95;;;2.13;;
35893;SDS011;21994;48.204;16.516;2022-07-29T10:15:32;2.65;;;1.55;;
35893;SDS011;21994;48.204;16.516;2022-07-29T10:18:04;2.20;;;1.35;;
35893;SDS011;21994;48.204;16.516;2022-07-29T10:20:32;2.83;;;1.80;;
35893;SDS011;21994;48.204;16.516;2022-07-29T10:22:57;1.92;;;1.50;;
35893;SDS011;21994;48.204;16.516;2022-07-29T10:25:24;2.55;;;1.80;;
35893;SDS011;21994;48.204;16.516;2022-07-29T10:27:51;2.72;;;1.70;;
35893;SDS011;21994;48.204;16.516;2022-07-29T10:30:18;2.05;;;1.60;;
35893;SDS011;21994;48.204;16.516;2022-07-29T10:36:07;2.65;;;1.52;;
35893;SDS011;21994;48.204;16.516;2022-07-29T10:44:54;1.92;;;1.38;;
35893;SDS011;21994;48.204;16.516;2022-07-29T10:49:57;2.53;;;1.40;;
35893;SDS011;21994;48.204;16.516;2022-07-29T10:52:24;2.03;;;1.45;;
35893;SDS011;21994;48.204;16.516;2022-07-29T10:55:42;1.50;;;1.40;;
35893;SDS011;21994;48.204;16.516;2022-07-29T10:58:10;2.03;;;1.63;;
35893;SDS011;21994;48.204;16.516;2022-07-29T11:00:48;1.90;;;1.38;;
35893;SDS011;21994;48.204;16.516;2022-07-29T11:03:52;1.88;;;1.48;;
35893;SDS011;21994;48.204;16.516;2022-07-29T11:06:16;3.28;;;1.42;;
35893;SDS011;21994;48.204;16.516;2022-07-29T11:08:42;2.53;;;1.33;;
35893;SDS011;21994;48.204;16.516;2022-07-29T11:11:30;1.60;;;1.20;;
35893;SDS011;21994;48.204;16.516;2022-07-29T11:13:56;1.90;;;1.30;;
35893;SDS011;21994;48.204;16.516;2022-07-29T11:16:23;2.38;;;1.35;;
35893;SDS011;21994;48.204;16.516;2022-07-29T11:21:54;3.35;;;1.30;;
35893;SDS011;21994;48.204;16.516;2022-07-29T11:24:21;1.60;;;1.35;;
35893;SDS011;21994;48.204;16.516;2022-07-29T11:27:06;2.38;;;1.60;;
35893;SDS011;21994;48.204;16.516;2022-07-29T11:29:48;2.00;;;1.58;;
35893;SDS011;21994;48.204;16.516;2022-07-29T11:32:23;1.70;;;1.27;;
35893;SDS011;21994;48.204;16.516;2022-07-29T11:35:12;2.30;;;1.30;;
35893;SDS011;21994;48.204;16.516;2022-07-29T11:37:36;2.13;;;1.60;;
35893;SDS011;21994;48.204;16.516;2022-07-29T11:45:02;2.05;;;1.17;;
35893;SDS011;21994;48.204;16.516;2022-07-29T11:47:33;1.85;;;1.58;;
35893;SDS011;21994;48.204;16.516;2022-07-29T11:50:03;1.67;;;1.33;;
35893;SDS011;21994;48.204;16.516;2022-07-29T11:52:42;2.58;;;1.60;;
35893;SDS011;21994;48.204;16.516;2022-07-29T11:55:16;1.65;;;1.40;;
35893;SDS011;21994;48.204;16.516;2022-07-29T12:00:32;2.20;;;1.42;;
35893;SDS011;21994;48.204;16.516;2022-07-29T12:03:01;1.77;;;1.40;;
35893;SDS011;21994;48.204;16.516;2022-07-29T12:05:30;2.22;;;1.85;;
35893;SDS011;21994;48.204;16.516;2022-07-29T12:08:05;1.95;;;1.50;;
35893;SDS011;21994;48.204;16.516;2022-07-29T12:10:38;1.95;;;1.30;;
35893;SDS011;21994;48.204;16.516;2022-07-29T12:13:06;1.58;;;1.17;;
35893;SDS011;21994;48.204;16.516;2022-07-29T12:15:32;2.05;;;1.65;;
35893;SDS011;21994;48.204;16.516;2022-07-29T12:18:08;2.20;;;1.40;;
35893;SDS011;21994;48.204;16.516;2022-07-29T12:20:42;2.80;;;1.52;;
35893;SDS011;21994;48.204;16.516;2022-07-29T12:23:09;2.00;;;1.50;;
35893;SDS011;21994;48.204;16.516;2022-07-29T12:25:39;2.22;;;1.17;;
35893;SDS011;21994;48.204;16.516;2022-07-29T12:28:08;1.60;;;1.40;;
35893;SDS011;21994;48.204;16.516;2022-07-29T12:33:17;2.05;;;1.33;;
35893;SDS011;21994;48.204;16.516;2022-07-29T12:35:50;1.95;;;1.45;;
35893;SDS011;21994;48.204;16.516;2022-07-29T12:38:20;1.85;;;1.40;;
35893;SDS011;21994;48.204;16.516;2022-07-29T12:40:47;3.20;;;1.80;;
35893;SDS011;21994;48.204;16.516;2022-07-29T12:43:21;1.73;;;1.30;;
35893;SDS011;21994;48.204;16.516;2022-07-29T12:45:49;1.80;;;1.50;;
35893;SDS011;21994;48.204;16.516;2022-07-29T12:48:34;2.22;;;1.40;;
35893;SDS011;21994;48.204;16.516;2022-07-29T12:51:03;2.25;;;1.33;;
35893;SDS011;21994;48.204;16.516;2022-07-29T12:53:34;1.42;;;1.27;;
35893;SDS011;21994;48.204;16.516;2022-07-29T12:56:01;2.05;;;1.48;;
35893;SDS011;21994;48.204;16.516;2022-07-29T13:01:09;2.00;;;1.20;;
35893;SDS011;21994;48.204;16.516;2022-07-29T13:11:43;1.58;;;1.17;;
35893;SDS011;21994;48.204;16.516;2022-07-29T13:14:31;2.15;;;1.27;;
35893;SDS011;21994;48.204;16.516;2022-07-29T13:17:10;2.05;;;1.45;;
35893;SDS011;21994;48.204;16.516;2022-07-29T13:19:46;1.75;;;1.60;;
35893;SDS011;21994;48.204;16.516;2022-07-29T13:22:18;2.03;;;1.40;;
35893;SDS011;21994;48.204;16.516;2022-07-29T13:24:48;1.80;;;1.20;;
35893;SDS011;21994;48.204;16.516;2022-07-29T13:27:23;2.70;;;1.65;;
35893;SDS011;21994;48.204;16.516;2022-07-29T13:29:52;2.08;;;1.52;;
35893;SDS011;21994;48.204;16.516;2022-07-29T13:32:21;1.83;;;1.25;;
35893;SDS011;21994;48.204;16.516;2022-07-29T13:34:49;1.98;;;1.55;;
35893;SDS011;21994;48.204;16.516;2022-07-29T13:37:15;2.17;;;1.70;;
35893;SDS011;21994;48.204;16.516;2022-07-29T13:39:42;1.63;;;1.45;;
35893;SDS011;21994;48.204;16.516;2022-07-29T13:42:08;2.90;;;2.00;;
35893;SDS011;21994;48.204;16.516;2022-07-29T13:44:35;1.75;;;1.15;;
35893;SDS011;21994;48.204;16.516;2022-07-29T13:47:02;2.47;;;1.38;;
35893;SDS011;21994;48.204;16.516;2022-07-29T13:49:27;2.28;;;1.80;;
35893;SDS011;21994;48.204;16.516;2022-07-29T13:51:53;1.67;;;1.50;;
35893;SDS011;21994;48.204;16.516;2022-07-29T13:54:19;2.67;;;1.58;;
35893;SDS011;21994;48.204;16.516;2022-07-29T13:56:45;2.33;;;1.70;;
35893;SDS011;21994;48.204;16.516;2022-07-29T13:59:11;1.88;;;1.23;;
35893;SDS011;21994;48.204;16.516;2022-07-29T14:01:37;2.45;;;1.52;;
35893;SDS011;21994;48.204;16.516;2022-07-29T14:04:06;1.48;;;1.38;;
35893;SDS011;21994;48.204;16.516;2022-07-29T14:06:33;1.98;;;1.23;;
35893;SDS011;21994;48.204;16.516;2022-07-29T14:08:59;2.70;;;1.50;;
35893;SDS011;21994;48.204;16.516;2022-07-29T14:11:25;2.53;;;1.88;;
35893;SDS011;21994;48.204;16.516;2022-07-29T14:13:50;1.45;;;1.30;;
35893;SDS011;21994;48.204;16.516;2022-07-29T14:16:17;3.25;;;2.17;;
35893;SDS011;21994;48.204;16.516;2022-07-29T14:18:43;4.15;;;1.80;;
35893;SDS011;21994;48.204;16.516;2022-07-29T14:21:09;2.92;;;1.65;;
35893;SDS011;21994;48.204;16.516;2022-07-29T14:23:35;2.55;;;1.38;;
35893;SDS011;21994;48.204;16.516;2022-07-29T14:26:01;3.50;;;1.90;;
35893;SDS011;21994;48.204;16.516;2022-07-29T14:28:27;2.72;;;1.85;;
35893;SDS011;21994;48.204;16.516;2022-07-29T14:30:53;3.35;;;1.90;;
35893;SDS011;21994;48.204;16.516;2022-07-29T14:33:19;3.45;;;1.98;;
35893;SDS011;21994;48.204;16.516;2022-07-29T14:35:45;3.65;;;1.90;;
35893;SDS011;21994;48.204;16.516;2022-07-29T14:38:11;4.85;;;2.28;;
35893;SDS011;21994;48.204;16.516;2022-07-29T14:40:37;3.90;;;2.20;;
35893;SDS011;21994;48.204;16.516;2022-07-29T14:43:03;5.22;;;2.50;;
35893;SDS011;21994;48.204;16.516;2022-07-29T14:45:29;6.35;;;2.45;;
35893;SDS011;21994;48.204;16.516;2022-07-29T14:47:56;4.20;;;2.35;;
35893;SDS011;21994;48.204;16.516;2022-07-29T14:50:22;5.10;;;3.08;;
35893;SDS011;21994;48.204;16.516;2022-07-29T14:52:48;7.55;;;2.92;;
35893;SDS011;21994;48.204;16.516;2022-07-29T14:55:14;3.78;;;2.75;;
35893;SDS011;21994;48.204;16.516;2022-07-29T14:57:40;5.07;;;3.42;;
35893;SDS011;21994;48.204;16.516;2022-07-29T15:00:06;3.97;;;3.10;;
35893;SDS011;21994;48.204;16.516;2022-07-29T15:02:34;5.30;;;2.85;;
35893;SDS011;21994;48.204;16.516;2022-07-29T15:05:00;4.97;;;2.53;;
35893;SDS011;21994;48.204;16.516;2022-07-29T15:07:26;7.38;;;3.75;;
35893;SDS011;21994;48.204;16.516;2022-07-29T15:09:52;5.75;;;3.00;;
35893;SDS011;21994;48.204;16.516;2022-07-29T15:12:18;4.80;;;2.90;;
35893;SDS011;21994;48.204;16.516;2022-07-29T15:14:44;7.05;;;3.55;;
35893;SDS011;21994;48.204;16.516;2022-07-29T15:17:10;8.52;;;4.07;;
35893;SDS011;21994;48.204;16.516;2022-07-29T15:19:36;7.45;;;3.67;;
35893;SDS011;21994;48.204;16.516;2022-07-29T15:22:02;8.50;;;5.30;;
35893;SDS011;21994;48.204;16.516;2022-07-29T15:24:29;7.60;;;4.90;;
35893;SDS011;21994;48.204;16.516;2022-07-29T15:26:56;8.63;;;4.90;;
35893;SDS011;21994;48.204;16.516;2022-07-29T15:29:22;8.63;;;4.45;;
35893;SDS011;21994;48.204;16.516;2022-07-29T15:31:48;8.45;;;4.25;;
35893;SDS011;21994;48.204;16.516;2022-07-29T15:34:14;7.35;;;4.00;;
35893;SDS011;21994;48.204;16.516;2022-07-29T15:36:40;8.40;;;3.70;;
35893;SDS011;21994;48.204;16.516;2022-07-29T15:39:06;8.05;;;3.75;;